createdAt,value
2018-11-20T00:01:33.711Z,3.10
2018-11-20T00:04:40.993Z,3.10
2018-11-20T00:07:37.288Z,3.10
2018-11-20T00:10:25.908Z,3.10
2018-11-20T00:13:14.162Z,3.10
2018-11-20T00:16:02.488Z,3.10
2018-11-20T00:19:09.724Z,3.10
2018-11-20T00:22:17.046Z,3.10
2018-11-20T00:24:56.080Z,3.10
2018-11-20T00:27:51.232Z,3.10
2018-11-20T00:30:45.114Z,3.10
2018-11-20T00:33:31.925Z,3.10
2018-11-20T00:36:19.447Z,3.10
2018-11-20T00:39:05.246Z,3.10
2018-11-20T00:42:00.180Z,3.10
2018-11-20T00:44:53.947Z,3.10
2018-11-20T00:47:47.368Z,3.10
2018-11-20T00:50:41.563Z,3.10
2018-11-20T00:53:28.206Z,3.10
2018-11-20T00:56:53.277Z,3.10
2018-11-20T00:59:42.213Z,3.10
2018-11-20T01:02:30.547Z,3.10
2018-11-20T01:05:37.871Z,3.10
2018-11-20T01:08:45.088Z,3.10
2018-11-20T01:11:33.358Z,3.10
2018-11-20T01:14:21.698Z,3.10
2018-11-20T01:17:09.973Z,3.00
2018-11-20T01:19:46.426Z,3.10
2018-11-20T01:22:53.672Z,3.10
2018-11-20T01:25:51.691Z,3.10
2018-11-20T01:28:58.942Z,3.10
2018-11-20T01:32:06.221Z,3.10
2018-11-20T01:35:04.381Z,3.10
2018-11-20T01:38:11.714Z,3.10
2018-11-20T01:41:12.681Z,3.10
2018-11-20T01:44:19.923Z,3.10
2018-11-20T01:47:27.223Z,3.20
2018-11-20T01:50:34.512Z,3.20
2018-11-20T01:53:41.764Z,3.10
2018-11-20T01:56:49.056Z,3.10
2018-11-20T01:59:56.607Z,3.20
2018-11-20T02:03:03.880Z,3.10
2018-11-20T02:06:11.118Z,3.10
2018-11-20T02:09:18.410Z,3.10
2018-11-20T02:12:25.675Z,3.10
2018-11-20T02:15:33.129Z,3.10
2018-11-20T02:18:29.413Z,3.10
2018-11-20T02:21:36.676Z,3.20
2018-11-20T02:24:37.138Z,3.20
2018-11-20T02:27:47.083Z,3.20
2018-11-20T02:30:54.334Z,3.20
2018-11-20T02:33:42.583Z,3.20
2018-11-20T02:36:49.824Z,3.20
2018-11-20T02:39:57.089Z,3.20
2018-11-20T02:42:52.969Z,3.20
2018-11-20T02:46:00.224Z,3.20
2018-11-20T02:49:07.498Z,3.20
2018-11-20T02:52:14.745Z,3.20
2018-11-20T02:55:22.012Z,3.20
2018-11-20T02:58:29.295Z,3.20
2018-11-20T03:01:36.546Z,3.30
2018-11-20T03:04:43.816Z,3.20
2018-11-20T03:07:54.057Z,3.30
2018-11-20T03:11:01.328Z,3.30
2018-11-20T03:14:08.600Z,3.20
2018-11-20T03:17:15.837Z,3.30
2018-11-20T03:20:14.660Z,3.30
2018-11-20T03:23:21.911Z,3.20
2018-11-20T03:26:30.017Z,3.30
2018-11-20T03:29:56.274Z,3.30
2018-11-20T03:33:03.517Z,3.30
2018-11-20T03:36:11.670Z,3.30
2018-11-20T03:39:18.815Z,3.30
2018-11-20T03:42:28.731Z,3.30
2018-11-20T03:45:35.993Z,3.30
2018-11-20T03:48:43.260Z,3.30
2018-11-20T03:51:50.532Z,3.30
2018-11-20T03:54:47.808Z,3.30
2018-11-20T03:57:55.082Z,3.30
2018-11-20T04:01:02.360Z,3.30
2018-11-20T04:04:09.911Z,3.30
2018-11-20T04:07:08.008Z,3.30
2018-11-20T04:10:04.846Z,3.30
2018-11-20T04:13:08.536Z,3.30
2018-11-20T04:15:55.436Z,3.30
2018-11-20T04:18:42.297Z,3.30
2018-11-20T04:21:49.580Z,3.30
2018-11-20T04:24:56.872Z,3.30
2018-11-20T04:28:04.132Z,3.20
2018-11-20T04:31:30.414Z,3.20
2018-11-20T04:34:37.671Z,3.20
2018-11-20T04:37:39.016Z,3.10
2018-11-20T04:40:42.556Z,3.10
2018-11-20T04:43:52.558Z,3.10
2018-11-20T04:46:59.810Z,3.10
2018-11-20T04:50:07.222Z,3.10
2018-11-20T04:53:14.364Z,3.10
2018-11-20T04:56:21.646Z,3.10
2018-11-20T04:59:28.898Z,3.10
2018-11-20T05:02:36.183Z,3.00
2018-11-20T05:05:43.437Z,3.00
2018-11-20T05:08:50.709Z,3.00
2018-11-20T05:11:57.952Z,3.00
2018-11-20T05:15:05.184Z,3.00
2018-11-20T05:18:03.142Z,3.00
2018-11-20T05:21:10.422Z,3.00
2018-11-20T05:24:17.651Z,3.00
2018-11-20T05:27:24.902Z,3.00
2018-11-20T05:30:32.155Z,3.00
2018-11-20T05:33:39.393Z,3.00
2018-11-20T05:36:46.638Z,3.00
2018-11-20T05:39:45.772Z,3.00
2018-11-20T05:42:53.028Z,3.00
2018-11-20T05:46:00.291Z,3.00
2018-11-20T05:49:07.595Z,3.00
2018-11-20T05:52:15.150Z,3.00
2018-11-20T05:55:22.399Z,3.00
2018-11-20T05:58:29.672Z,3.00
2018-11-20T06:01:37.685Z,3.00
2018-11-20T06:04:44.947Z,3.00
2018-11-20T06:07:21.287Z,3.00
2018-11-20T06:10:12.194Z,3.00
2018-11-20T06:16:24.255Z,3.00
2018-11-20T06:19:34.369Z,3.00
2018-11-20T06:22:22.739Z,2.90
2018-11-20T06:25:30.017Z,2.90
2018-11-20T06:28:37.292Z,2.90
2018-11-20T06:31:44.544Z,2.90
2018-11-20T06:34:51.892Z,2.90
2018-11-20T06:37:59.074Z,2.90
2018-11-20T06:41:06.368Z,2.90
2018-11-20T06:44:13.636Z,2.90
2018-11-20T06:47:20.962Z,2.90
2018-11-20T06:50:28.819Z,2.90
2018-11-20T06:56:15.588Z,2.80
2018-11-20T06:59:04.142Z,2.80
2018-11-20T07:01:55.238Z,2.80
2018-11-20T07:04:43.451Z,2.80
2018-11-20T07:07:30.749Z,2.80
2018-11-20T07:10:17.328Z,2.80
2018-11-20T07:13:58.204Z,2.80
2018-11-20T07:17:05.590Z,2.80
2018-11-20T07:20:12.865Z,2.80
2018-11-20T07:23:20.346Z,2.70
2018-11-20T07:26:27.607Z,2.80
2018-11-20T07:29:28.007Z,2.80
2018-11-20T07:32:35.235Z,2.80
2018-11-20T07:35:42.635Z,2.80
2018-11-20T07:38:49.923Z,2.80
2018-11-20T07:41:57.178Z,2.80
2018-11-20T07:45:04.493Z,2.80
2018-11-20T07:48:08.844Z,2.80
2018-11-20T07:51:16.088Z,2.80
2018-11-20T07:54:23.360Z,2.70
2018-11-20T07:57:30.651Z,2.70
2018-11-20T08:00:40.500Z,2.70
2018-11-20T08:03:48.126Z,2.70
2018-11-20T08:06:55.504Z,2.70
2018-11-20T08:10:02.917Z,2.70
2018-11-20T08:13:10.485Z,2.70
2018-11-20T08:16:17.949Z,2.70
2018-11-20T08:19:25.361Z,2.70
2018-11-20T08:22:32.683Z,2.70
2018-11-20T08:25:39.950Z,2.70
2018-11-20T08:28:47.299Z,2.70
2018-11-20T08:31:54.717Z,2.70
2018-11-20T08:38:08.940Z,2.70
2018-11-20T08:41:16.180Z,2.70
2018-11-20T08:44:23.476Z,2.70
2018-11-20T08:47:30.795Z,2.70
2018-11-20T08:50:38.021Z,2.70
2018-11-20T08:53:45.604Z,2.60
2018-11-20T08:56:45.656Z,2.70
2018-11-20T08:59:53.122Z,2.60
2018-11-20T09:03:00.475Z,2.60
2018-11-20T09:09:26.736Z,2.60
2018-11-20T09:12:34.031Z,2.60
2018-11-20T09:15:41.313Z,2.60
2018-11-20T09:18:48.608Z,2.60
2018-11-20T09:21:55.939Z,2.60
2018-11-20T09:28:09.206Z,2.60
2018-11-20T09:31:10.727Z,2.60
2018-11-20T09:34:12.784Z,2.60
2018-11-20T09:37:20.037Z,2.70
2018-11-20T09:40:46.283Z,2.70
2018-11-20T09:44:12.549Z,2.60
2018-11-20T09:47:19.793Z,2.60
2018-11-20T09:50:28.241Z,2.70
2018-11-20T09:53:35.498Z,2.60
2018-11-20T09:56:42.961Z,2.70
2018-11-20T09:59:50.431Z,2.70
2018-11-20T10:02:57.627Z,2.60
2018-11-20T10:06:04.868Z,2.60
2018-11-20T10:09:12.105Z,2.60
2018-11-20T10:12:19.350Z,2.60
2018-11-20T10:15:27.078Z,2.60
2018-11-20T10:18:34.310Z,2.70
2018-11-20T10:21:41.765Z,2.70
2018-11-20T10:24:49.100Z,2.70
2018-11-20T10:27:56.263Z,2.70
2018-11-20T10:31:03.651Z,2.70
2018-11-20T10:34:10.907Z,2.70
2018-11-20T10:37:18.204Z,2.70
2018-11-20T10:40:26.161Z,2.70
2018-11-20T10:43:33.475Z,2.70
2018-11-20T10:46:40.856Z,2.70
2018-11-20T10:49:48.517Z,2.70
2018-11-20T10:52:56.134Z,2.80
2018-11-20T10:56:03.493Z,2.80
2018-11-20T10:59:10.878Z,2.80
2018-11-20T11:02:18.157Z,2.80
2018-11-20T11:05:26.045Z,2.90
2018-11-20T11:08:33.311Z,2.90
2018-11-20T11:11:40.704Z,3.00
2018-11-20T11:14:48.017Z,3.00
2018-11-20T11:17:55.213Z,3.00
2018-11-20T11:21:02.658Z,3.00
2018-11-20T11:24:09.788Z,3.00
2018-11-20T11:27:17.212Z,3.00
2018-11-20T11:30:25.038Z,3.00
2018-11-20T11:33:28.900Z,3.10
2018-11-20T11:36:35.862Z,3.10
2018-11-20T11:39:43.905Z,3.00
2018-11-20T11:42:51.454Z,3.10
2018-11-20T11:45:58.685Z,3.00
2018-11-20T11:49:06.263Z,3.10
2018-11-20T11:52:13.667Z,3.00
2018-11-20T11:55:20.926Z,3.00
2018-11-20T11:59:00.397Z,3.00
2018-11-20T12:05:02.255Z,3.00
2018-11-20T12:08:05.491Z,3.10
2018-11-20T12:11:05.524Z,3.00
2018-11-20T12:14:11.416Z,3.00
2018-11-20T12:17:13.945Z,3.00
2018-11-20T12:20:13.615Z,3.10
2018-11-20T12:23:13.616Z,3.10
2018-11-20T12:26:17.015Z,3.10
2018-11-20T12:29:19.872Z,3.10
2018-11-20T12:32:19.953Z,3.10
2018-11-20T12:35:33.137Z,3.20
2018-11-20T12:38:26.098Z,3.20
2018-11-20T12:41:26.644Z,3.20
2018-11-20T12:44:09.581Z,3.20
2018-11-20T12:50:10.598Z,3.30
2018-11-20T12:53:08.265Z,3.30
2018-11-20T12:56:08.226Z,3.20
2018-11-20T13:02:17.110Z,3.20
2018-11-20T13:05:24.393Z,3.20
2018-11-20T13:08:30.977Z,3.20
2018-11-20T13:11:32.112Z,3.20
2018-11-20T13:14:38.989Z,3.20
2018-11-20T13:17:33.612Z,3.20
2018-11-20T13:20:39.752Z,3.20
2018-11-20T13:23:46.663Z,3.20
2018-11-20T13:26:53.542Z,3.10
2018-11-20T13:30:00.636Z,3.10
2018-11-20T13:33:07.552Z,3.10
2018-11-20T13:36:14.508Z,3.00
2018-11-20T13:39:21.630Z,3.00
2018-11-20T13:42:28.665Z,3.00
2018-11-20T13:48:03.943Z,2.90
2018-11-20T13:51:11.858Z,2.80
2018-11-20T13:53:58.693Z,2.80
2018-11-20T13:56:46.316Z,2.70
2018-11-20T14:02:29.339Z,2.40
2018-11-20T14:05:16.963Z,2.30
2018-11-20T14:08:24.452Z,2.20
2018-11-20T14:11:36.366Z,2.00
2018-11-20T14:14:38.309Z,1.90
2018-11-20T14:17:45.474Z,1.70
2018-11-20T14:20:28.946Z,1.60
2018-11-20T14:23:35.797Z,1.50
2018-11-20T14:26:23.289Z,1.40
2018-11-20T14:29:30.192Z,1.30
2018-11-20T14:32:37.041Z,1.20
2018-11-20T14:35:43.940Z,1.20
2018-11-20T14:38:31.438Z,1.20
2018-11-20T14:41:38.299Z,1.10
2018-11-20T14:44:25.973Z,1.10
2018-11-20T14:47:13.419Z,1.10
2018-11-20T14:50:20.262Z,1.10
2018-11-20T14:53:27.236Z,1.10
2018-11-20T14:56:14.669Z,1.10
2018-11-20T14:59:21.743Z,1.10
2018-11-20T15:02:09.553Z,1.10
2018-11-20T15:05:16.565Z,1.00
2018-11-20T15:08:02.626Z,1.00
2018-11-20T15:10:48.532Z,1.00
2018-11-20T15:13:34.306Z,0.90
2018-11-20T15:16:15.522Z,0.90
2018-11-20T15:19:06.048Z,0.90
2018-11-20T15:21:54.291Z,0.90
2018-11-20T15:24:46.230Z,0.80
2018-11-20T15:27:32.142Z,0.80
2018-11-20T15:30:31.574Z,0.80
2018-11-20T15:33:24.130Z,0.80
2018-11-20T15:36:17.834Z,0.80
2018-11-20T15:39:10.647Z,0.80
2018-11-20T15:41:57.161Z,0.80
2018-11-20T15:44:50.515Z,0.80
2018-11-20T15:47:31.886Z,0.80
2018-11-20T15:50:30.890Z,0.80
2018-11-20T15:53:11.258Z,0.80
2018-11-20T15:55:59.850Z,0.80
2018-11-20T15:58:46.239Z,0.80
2018-11-20T16:01:48.810Z,0.80
2018-11-20T16:04:27.368Z,0.80
2018-11-20T16:07:10.835Z,0.90
2018-11-20T16:09:57.664Z,0.90
2018-11-20T16:12:43.856Z,0.90
2018-11-20T16:15:46.340Z,0.90
2018-11-20T16:18:32.184Z,0.90
2018-11-20T16:21:18.157Z,1.00
2018-11-20T16:24:04.672Z,1.00
2018-11-20T16:26:51.171Z,1.00
2018-11-20T16:29:31.419Z,1.00
2018-11-20T16:32:31.197Z,1.10
2018-11-20T16:35:17.492Z,1.10
2018-11-20T16:37:55.781Z,1.10
2018-11-20T16:40:33.879Z,1.10
2018-11-20T16:43:19.837Z,1.10
2018-11-20T16:46:16.010Z,1.20
2018-11-20T16:49:01.245Z,1.20
2018-11-20T16:52:08.105Z,1.20
2018-11-20T16:55:14.972Z,1.20
2018-11-20T16:58:21.845Z,1.20
2018-11-20T17:01:09.282Z,1.30
2018-11-20T17:04:16.233Z,1.30
2018-11-20T17:06:55.553Z,1.30
2018-11-20T17:10:02.426Z,1.30
2018-11-20T17:12:49.883Z,1.40
2018-11-20T17:15:57.112Z,1.40
2018-11-20T17:19:04.024Z,1.40
2018-11-20T17:22:10.859Z,1.50
2018-11-20T17:25:17.902Z,1.50
2018-11-20T17:28:24.984Z,1.60
2018-11-20T17:31:32.219Z,1.60
2018-11-20T17:34:35.197Z,1.60
2018-11-20T17:37:42.258Z,1.60
2018-11-20T17:40:28.882Z,1.60
2018-11-20T17:43:19.981Z,1.60
2018-11-20T17:46:27.152Z,1.60
2018-11-20T17:52:43.770Z,1.60
2018-11-20T17:55:53.415Z,1.70
2018-11-20T17:58:40.829Z,1.70
2018-11-20T18:01:28.367Z,1.70
2018-11-20T18:04:35.255Z,1.70
2018-11-20T18:07:22.721Z,1.70
2018-11-20T18:10:29.617Z,1.70
2018-11-20T18:13:14.777Z,1.70
2018-11-20T18:15:57.815Z,1.70
2018-11-20T18:18:45.258Z,1.80
2018-11-20T18:21:52.156Z,1.80
2018-11-20T18:24:59.650Z,1.80
2018-11-20T18:28:06.636Z,1.80
2018-11-20T18:31:13.598Z,1.80
2018-11-20T18:34:20.515Z,1.90
2018-11-20T18:37:07.946Z,1.80
2018-11-20T18:40:14.943Z,1.80
2018-11-20T18:43:22.161Z,1.80
2018-11-20T18:46:29.017Z,1.80
2018-11-20T18:55:49.304Z,2.00
2018-11-20T18:58:56.174Z,1.80
2018-11-20T19:02:05.545Z,1.80
2018-11-20T19:04:41.000Z,1.80
2018-11-20T19:07:37.725Z,1.80
2018-11-20T19:10:44.787Z,1.80
2018-11-20T19:13:32.664Z,1.80
2018-11-20T19:16:39.644Z,1.80
2018-11-20T19:19:46.661Z,1.80
2018-11-20T19:22:53.479Z,1.80
2018-11-20T19:26:00.472Z,1.80
2018-11-20T19:29:07.406Z,1.80
2018-11-20T19:32:17.038Z,1.80
2018-11-20T19:35:24.207Z,1.80
2018-11-20T19:38:31.079Z,1.80
2018-11-20T19:41:18.748Z,1.80
2018-11-20T19:44:25.614Z,1.90
2018-11-20T19:47:32.465Z,1.90
2018-11-20T19:50:39.630Z,1.90
2018-11-20T19:53:46.507Z,1.90
2018-11-20T19:56:53.372Z,1.90
2018-11-20T20:00:00.227Z,1.90
2018-11-20T20:03:07.142Z,1.90
2018-11-20T20:06:13.972Z,1.90
2018-11-20T20:09:20.830Z,2.00
2018-11-20T20:12:29.710Z,1.90
2018-11-20T20:15:35.002Z,1.90
2018-11-20T20:18:41.832Z,1.90
2018-11-20T20:21:48.689Z,1.90
2018-11-20T20:24:58.690Z,1.90
2018-11-20T20:27:46.169Z,1.90
2018-11-20T20:30:33.612Z,1.90
2018-11-20T20:33:40.557Z,1.90
2018-11-20T20:36:47.435Z,1.90
2018-11-20T20:43:04.998Z,1.90
2018-11-20T20:46:10.815Z,1.90
2018-11-20T20:49:17.991Z,1.90
2018-11-20T20:52:05.537Z,1.90
2018-11-20T20:55:12.403Z,2.00
2018-11-20T20:58:19.264Z,1.90
2018-11-20T21:01:26.250Z,1.90
2018-11-20T21:04:33.535Z,1.90
2018-11-20T21:07:20.971Z,1.90
2018-11-20T21:10:27.864Z,1.90
2018-11-20T21:13:34.758Z,1.90
2018-11-20T21:16:43.081Z,1.90
2018-11-20T21:19:48.533Z,1.90
2018-11-20T21:22:55.340Z,1.90
2018-11-20T21:26:02.219Z,1.80
2018-11-20T21:28:49.693Z,1.80
2018-11-20T21:31:56.537Z,1.70
2018-11-20T21:35:03.436Z,1.70
2018-11-20T21:38:10.312Z,1.70
2018-11-20T21:41:17.179Z,1.70
2018-11-20T21:44:14.105Z,1.70
2018-11-20T21:47:01.564Z,1.60
2018-11-20T21:50:08.401Z,1.60
2018-11-20T21:53:15.279Z,1.50
2018-11-20T21:56:16.092Z,1.50
2018-11-20T21:59:09.374Z,1.50
2018-11-20T22:02:03.294Z,1.50
2018-11-20T22:04:49.260Z,1.60
2018-11-20T22:07:51.441Z,1.60
2018-11-20T22:10:37.404Z,1.60
2018-11-20T22:13:42.776Z,1.70
2018-11-20T22:16:28.766Z,1.70
2018-11-20T22:19:14.514Z,1.60
2018-11-20T22:22:03.881Z,1.60
2018-11-20T22:24:49.754Z,1.60
2018-11-20T22:27:37.239Z,1.60
2018-11-20T22:30:44.133Z,1.50
2018-11-20T22:33:31.667Z,1.50
2018-11-20T22:36:38.529Z,1.50
2018-11-20T22:39:45.411Z,1.40
2018-11-20T22:42:52.274Z,1.40
2018-11-20T22:45:59.377Z,1.40
2018-11-20T22:49:06.269Z,1.40
2018-11-20T22:52:13.140Z,1.40
2018-11-20T22:55:20.033Z,1.30
2018-11-20T22:58:16.146Z,1.30
2018-11-20T23:01:23.091Z,1.30
2018-11-20T23:04:29.934Z,1.30
2018-11-20T23:07:36.800Z,1.30
2018-11-20T23:10:05.278Z,1.30
2018-11-20T23:12:53.309Z,1.30
2018-11-20T23:15:41.077Z,1.30
2018-11-20T23:18:28.845Z,1.30
2018-11-20T23:20:57.241Z,1.30
2018-11-20T23:23:44.950Z,1.30
2018-11-20T23:26:33.623Z,1.40
2018-11-20T23:29:21.395Z,1.40
2018-11-20T23:32:09.295Z,1.50
2018-11-20T23:34:57.162Z,1.50
2018-11-20T23:37:44.854Z,1.60
2018-11-20T23:40:32.544Z,1.60
2018-11-20T23:43:20.299Z,1.70
2018-11-20T23:45:48.788Z,1.70
2018-11-20T23:48:36.510Z,1.70
2018-11-20T23:51:24.239Z,1.70
2018-11-20T23:53:52.784Z,1.70
2018-11-20T23:56:40.434Z,1.80
2018-11-20T23:59:28.349Z,1.80
